Time;durP1;ratioP1;P1;durP2;ratioP2;P2;SDS_P1;SDS_P2;PMS_P1;PMS_P2;Temp;Humidity;BMP_temperature;BMP_pressure;BME280_temperature;BME280_humidity;BME280_pressure;Samples;Min_cycle;Max_cycle;Signal;HPM_P1;HPM_P2
2022/09/01 00:01:19;;;;;;;8.57;1.48;;;17.90;99.90;;;;;;5036023;28;20026;-59
2022/09/01 00:03:51;;;;;;;6.38;1.90;;;17.90;99.90;;;;;;5036016;28;20040;-60
2022/09/01 00:06:21;;;;;;;6.72;1.60;;;17.90;99.90;;;;;;5037082;28;20030;-59
2022/09/01 00:08:52;;;;;;;12.85;1.95;;;17.90;99.90;;;;;;5037264;28;20044;-59
2022/09/01 00:11:20;;;;;;;7.20;1.35;;;17.90;99.90;;;;;;5037198;28;20053;-60
2022/09/01 00:13:47;;;;;;;7.15;1.60;;;17.90;99.90;;;;;;5004201;28;20034;-59
2022/09/01 00:16:15;;;;;;;15.68;2.38;;;17.90;99.90;;;;;;5037427;28;20037;-59
2022/09/01 00:18:45;;;;;;;7.13;1.75;;;17.90;99.90;;;;;;5020551;28;20117;-59
2022/09/01 00:21:13;;;;;;;5.57;1.50;;;17.90;99.90;;;;;;5037143;28;20026;-59
2022/09/01 00:23:39;;;;;;;7.97;1.70;;;17.90;99.90;;;;;;4988090;28;20033;-60
2022/09/01 00:26:06;;;;;;;7.88;1.83;;;17.90;99.90;;;;;;5037254;28;20041;-59
2022/09/01 00:28:34;;;;;;;12.07;2.15;;;17.90;99.90;;;;;;5020417;28;20366;-60
2022/09/01 00:31:01;;;;;;;6.63;1.40;;;17.90;99.90;;;;;;5036370;28;20026;-60
2022/09/01 00:33:28;;;;;;;9.27;1.58;;;17.90;99.90;;;;;;5036733;28;20049;-60
2022/09/01 00:35:55;;;;;;;6.60;1.63;;;17.90;99.90;;;;;;5036772;28;20026;-59
2022/09/01 00:38:22;;;;;;;7.25;1.80;;;18.00;99.90;;;;;;5020135;28;20034;-60
2022/09/01 00:40:49;;;;;;;7.72;2.33;;;17.90;99.90;;;;;;5036275;28;20046;-60
2022/09/01 00:43:19;;;;;;;10.82;1.55;;;17.90;99.90;;;;;;5019814;28;20085;-59
2022/09/01 00:45:46;;;;;;;7.07;1.70;;;17.90;99.90;;;;;;5036675;28;20052;-59
2022/09/01 00:48:13;;;;;;;5.32;1.45;;;17.90;99.90;;;;;;5020034;28;20056;-58
2022/09/01 00:50:40;;;;;;;11.63;1.75;;;17.90;99.90;;;;;;5036874;28;20104;-59
2022/09/01 00:53:08;;;;;;;9.68;2.13;;;17.90;99.90;;;;;;5003643;28;20030;-60
2022/09/01 00:55:36;;;;;;;5.57;1.27;;;17.90;99.90;;;;;;5003973;28;20038;-60
2022/09/01 00:58:04;;;;;;;6.22;2.05;;;18.00;99.90;;;;;;5019837;28;20041;-60
2022/09/01 01:00:32;;;;;;;7.15;1.55;;;18.00;99.90;;;;;;5036499;28;20060;-60
2022/09/01 01:02:59;;;;;;;8.75;2.42;;;18.00;99.90;;;;;;5019758;28;20097;-60
2022/09/01 01:05:32;;;;;;;9.10;1.58;;;18.00;99.90;;;;;;5022185;28;20025;-61
2022/09/01 01:08:00;;;;;;;7.82;1.55;;;18.00;99.90;;;;;;5019815;28;20030;-60
2022/09/01 01:10:31;;;;;;;6.10;2.03;;;18.00;99.90;;;;;;5035442;28;20041;-60
2022/09/01 01:13:03;;;;;;;8.82;1.92;;;18.00;99.90;;;;;;4988028;28;20022;-59
2022/09/01 01:15:30;;;;;;;9.85;1.75;;;18.00;99.90;;;;;;5036100;28;20050;-60
2022/09/01 01:17:57;;;;;;;5.05;1.75;;;18.00;99.90;;;;;;5036155;28;20053;-60
2022/09/01 01:23:44;;;;;;;4.38;1.73;;;18.00;99.90;;;;;;4986993;28;20026;-60
2022/09/01 01:26:11;;;;;;;10.10;2.10;;;17.90;99.90;;;;;;5019422;28;20033;-60
2022/09/01 01:28:39;;;;;;;7.40;1.30;;;17.90;99.90;;;;;;4683230;28;9999866;-60
2022/09/01 01:31:10;;;;;;;9.10;2.53;;;18.00;99.90;;;;;;5035284;28;20045;-60
2022/09/01 01:33:49;;;;;;;10.40;1.52;;;18.00;99.90;;;;;;5036236;28;20046;-60
2022/09/01 01:36:20;;;;;;;5.28;2.30;;;18.00;99.90;;;;;;5036297;28;20038;-60
2022/09/01 01:38:47;;;;;;;4.38;1.45;;;18.00;99.90;;;;;;5036450;28;20034;-58
2022/09/01 01:41:14;;;;;;;7.63;1.67;;;17.90;99.90;;;;;;5019073;28;20056;-59
2022/09/01 01:43:41;;;;;;;4.90;1.40;;;17.90;99.90;;;;;;5036057;28;20033;-58
2022/09/01 01:46:10;;;;;;;9.35;1.63;;;17.90;99.90;;;;;;5019353;28;20184;-58
2022/09/01 01:48:38;;;;;;;6.53;1.55;;;17.90;99.90;;;;;;4999573;28;20042;-59
2022/09/01 01:51:05;;;;;;;8.50;1.50;;;17.90;99.90;;;;;;5034435;28;20052;-59
2022/09/01 01:53:32;;;;;;;8.82;1.35;;;17.90;99.90;;;;;;5005947;28;20034;-59
2022/09/01 01:55:59;;;;;;;8.50;1.52;;;17.90;99.90;;;;;;5022821;28;20030;-59
2022/09/01 01:58:27;;;;;;;8.50;1.42;;;17.90;99.90;;;;;;5039387;28;20037;-60
2022/09/01 02:00:54;;;;;;;10.73;1.80;;;17.90;99.90;;;;;;5039566;28;20088;-60
2022/09/01 02:03:27;;;;;;;6.60;1.73;;;17.90;99.90;;;;;;5039331;28;20040;-60
2022/09/01 02:05:55;;;;;;;9.15;2.08;;;17.90;99.90;;;;;;5023250;28;20038;-60
2022/09/01 02:08:24;;;;;;;8.50;2.53;;;17.90;99.90;;;;;;5006609;28;20042;-60
2022/09/01 02:10:53;;;;;;;9.13;2.03;;;17.90;99.90;;;;;;5007284;28;20069;-60
2022/09/01 02:13:29;;;;;;;12.63;1.88;;;17.90;99.90;;;;;;5038357;28;20034;-59
2022/09/01 02:15:59;;;;;;;6.13;1.50;;;17.90;99.90;;;;;;5008788;28;20037;-60
2022/09/01 02:18:29;;;;;;;8.68;1.58;;;17.80;99.90;;;;;;5022265;28;20057;-59
2022/09/01 02:20:57;;;;;;;10.95;1.45;;;17.80;99.90;;;;;;5037408;28;20040;-60
2022/09/01 02:23:24;;;;;;;10.85;2.97;;;17.80;99.90;;;;;;5038738;28;20037;-60
2022/09/01 02:25:56;;;;;;;8.63;1.90;;;17.80;99.90;;;;;;5021966;28;20042;-59
2022/09/01 02:28:45;;;;;;;8.45;1.45;;;17.80;99.90;;;;;;5028465;28;20077;-59
2022/09/01 02:31:19;;;;;;;7.30;1.83;;;17.80;99.90;;;;;;5023045;28;20023;-59
2022/09/01 02:33:47;;;;;;;15.15;1.90;;;17.80;99.90;;;;;;5021558;28;20056;-58
2022/09/01 02:36:16;;;;;;;20.05;1.65;;;17.80;99.90;;;;;;5038683;28;20034;-58
2022/09/01 02:38:43;;;;;;;5.82;1.98;;;17.80;99.90;;;;;;5038548;28;20036;-59
2022/09/01 02:41:13;;;;;;;6.15;1.85;;;17.70;99.90;;;;;;5038577;28;20042;-58
2022/09/01 02:43:42;;;;;;;9.20;2.20;;;17.70;99.90;;;;;;5038141;28;20291;-59
2022/09/01 02:46:09;;;;;;;10.93;1.73;;;17.70;99.90;;;;;;5037530;28;20032;-59
2022/09/01 02:48:37;;;;;;;11.48;1.88;;;17.70;99.90;;;;;;5038301;28;20033;-58
2022/09/01 02:51:05;;;;;;;12.10;1.73;;;17.70;99.90;;;;;;5038629;28;20034;-59
2022/09/01 02:53:35;;;;;;;8.40;1.67;;;17.70;99.90;;;;;;5037893;28;20113;-59
2022/09/01 02:56:03;;;;;;;16.50;1.88;;;17.70;99.90;;;;;;5021589;28;20037;-58
2022/09/01 02:58:33;;;;;;;6.80;1.88;;;17.70;99.90;;;;;;5021554;28;20040;-59
2022/09/01 03:01:00;;;;;;;9.98;1.85;;;17.70;99.90;;;;;;5038033;28;20102;-58
2022/09/01 03:03:28;;;;;;;8.50;2.40;;;17.70;99.90;;;;;;5037732;28;20053;-58
2022/09/01 03:05:55;;;;;;;14.05;2.00;;;17.60;99.90;;;;;;5038071;28;20033;-59
2022/09/01 03:08:23;;;;;;;11.25;1.98;;;17.70;99.90;;;;;;5021538;28;20040;-58
2022/09/01 03:10:50;;;;;;;10.90;2.50;;;17.60;99.90;;;;;;5038071;28;20049;-59
2022/09/01 03:13:19;;;;;;;9.57;1.80;;;17.60;99.90;;;;;;5004624;28;20045;-58
2022/09/01 03:15:46;;;;;;;12.93;2.13;;;17.60;99.90;;;;;;5037896;28;20054;-59
2022/09/01 03:18:13;;;;;;;11.00;2.15;;;17.60;99.90;;;;;;5021202;28;20041;-58
2022/09/01 03:20:45;;;;;;;17.33;2.22;;;17.50;99.90;;;;;;5037970;28;20041;-59
2022/09/01 03:23:14;;;;;;;10.55;2.38;;;17.50;99.90;;;;;;5037597;28;20056;-58
2022/09/01 03:25:45;;;;;;;6.35;1.60;;;17.50;99.90;;;;;;5037742;28;20065;-59
2022/09/01 03:28:12;;;;;;;9.15;2.50;;;17.50;99.90;;;;;;5037451;28;20022;-59
2022/09/01 03:30:44;;;;;;;10.45;1.80;;;17.50;99.90;;;;;;5021060;28;20034;-59
2022/09/01 03:33:11;;;;;;;10.82;2.00;;;17.50;99.90;;;;;;5020830;28;20053;-59
2022/09/01 03:35:39;;;;;;;12.25;2.25;;;17.50;99.90;;;;;;5037507;28;20065;-59
2022/09/01 03:38:06;;;;;;;12.23;1.77;;;17.40;99.90;;;;;;5037635;28;20045;-59
2022/09/01 03:40:34;;;;;;;17.63;3.15;;;17.50;99.90;;;;;;5037662;28;20042;-59
2022/09/01 03:43:03;;;;;;;10.07;2.17;;;17.50;99.90;;;;;;5003866;28;20041;-59
2022/09/01 03:45:37;;;;;;;11.27;2.88;;;17.50;99.90;;;;;;5020658;28;20026;-58
2022/09/01 03:48:07;;;;;;;7.72;1.70;;;17.50;99.90;;;;;;5020689;28;20077;-59
2022/09/01 03:50:40;;;;;;;15.13;2.58;;;17.50;99.90;;;;;;5021037;28;20034;-59
2022/09/01 03:53:07;;;;;;;9.98;2.22;;;17.40;99.90;;;;;;5018971;28;20029;-59
2022/09/01 03:55:34;;;;;;;8.68;2.28;;;17.40;99.90;;;;;;5037408;28;20044;-59
2022/09/01 03:58:05;;;;;;;6.50;1.63;;;17.40;99.90;;;;;;5002893;28;20073;-59
2022/09/01 04:00:38;;;;;;;8.23;2.00;;;17.40;99.90;;;;;;5017732;28;20022;-59
2022/09/01 04:03:07;;;;;;;13.32;4.32;;;17.40;99.90;;;;;;5017214;28;20054;-58
2022/09/01 04:05:36;;;;;;;9.43;1.90;;;17.40;99.90;;;;;;5026168;28;20034;-58
2022/09/01 04:08:05;;;;;;;11.45;2.03;;;17.40;99.90;;;;;;5035256;28;20048;-59
2022/09/01 04:10:34;;;;;;;10.43;1.67;;;17.40;99.90;;;;;;5037149;28;20038;-59
2022/09/01 04:13:01;;;;;;;12.50;4.22;;;17.40;99.90;;;;;;5019583;28;20053;-59
2022/09/01 04:15:31;;;;;;;14.75;2.33;;;17.30;99.90;;;;;;5036304;28;20034;-59
2022/09/01 04:18:08;;;;;;;9.95;1.50;;;17.30;99.90;;;;;;5036765;28;20033;-58
2022/09/01 04:20:47;;;;;;;10.02;2.28;;;17.30;99.90;;;;;;5036952;28;20038;-59
2022/09/01 04:23:28;;;;;;;12.27;3.95;;;17.30;99.90;;;;;;5021141;28;20046;-59
2022/09/01 04:26:07;;;;;;;12.23;2.20;;;17.40;99.90;;;;;;5019980;28;20305;-59
2022/09/01 04:28:39;;;;;;;7.97;2.10;;;17.30;99.90;;;;;;5036422;28;20026;-59
2022/09/01 04:31:08;;;;;;;14.35;2.63;;;17.30;99.90;;;;;;5036798;28;20052;-59
2022/09/01 04:33:37;;;;;;;11.45;2.55;;;17.30;99.90;;;;;;5036694;28;20036;-59
2022/09/01 04:36:05;;;;;;;9.32;2.35;;;17.30;99.90;;;;;;5036531;28;20034;-59
2022/09/01 04:38:34;;;;;;;13.48;2.92;;;17.30;99.90;;;;;;5036442;28;20018;-59
2022/09/01 04:41:05;;;;;;;7.97;2.28;;;17.30;99.90;;;;;;5036475;28;20046;-59
2022/09/01 04:43:33;;;;;;;10.50;2.15;;;17.30;99.90;;;;;;5036136;28;20030;-59
2022/09/01 04:46:01;;;;;;;14.05;2.30;;;17.30;99.90;;;;;;5019381;28;20037;-58
2022/09/01 04:48:30;;;;;;;9.23;2.17;;;17.30;99.90;;;;;;5019373;28;20029;-58
2022/09/01 04:50:57;;;;;;;18.42;2.65;;;17.30;99.90;;;;;;5036505;28;20050;-59
2022/09/01 04:53:25;;;;;;;11.63;2.20;;;17.30;99.90;;;;;;5003187;28;20029;-59
2022/09/01 04:55:54;;;;;;;14.48;2.42;;;17.30;99.90;;;;;;5019757;28;20050;-60
2022/09/01 04:58:21;;;;;;;11.80;2.65;;;17.30;99.90;;;;;;5035865;28;20022;-59
2022/09/01 05:00:50;;;;;;;11.27;2.05;;;17.30;99.90;;;;;;5036063;28;20029;-59
2022/09/01 05:03:23;;;;;;;9.45;2.75;;;17.30;99.90;;;;;;5036115;28;20069;-59
2022/09/01 05:05:52;;;;;;;13.73;2.47;;;17.30;99.90;;;;;;5035438;28;20064;-60
2022/09/01 05:08:21;;;;;;;8.10;1.63;;;17.30;99.90;;;;;;5003081;28;20054;-59
2022/09/01 05:10:54;;;;;;;12.30;1.70;;;17.30;99.90;;;;;;5019689;28;20090;-59
2022/09/01 05:13:22;;;;;;;9.68;2.13;;;17.30;99.90;;;;;;5003561;28;20026;-58
2022/09/01 05:16:03;;;;;;;10.88;2.53;;;17.30;99.90;;;;;;5019447;28;20038;-59
2022/09/01 05:18:30;;;;;;;12.30;3.38;;;17.20;99.90;;;;;;5036101;28;20038;-58
2022/09/01 05:20:57;;;;;;;9.88;1.83;;;17.30;99.90;;;;;;5019036;28;20038;-59
2022/09/01 05:23:25;;;;;;;17.02;2.28;;;17.30;99.90;;;;;;5036006;28;20080;-59
2022/09/01 05:25:55;;;;;;;12.95;2.97;;;17.30;99.90;;;;;;5037746;28;20029;-59
2022/09/01 05:28:25;;;;;;;6.55;1.75;;;17.30;99.90;;;;;;5007759;28;20025;-60
2022/09/01 05:30:53;;;;;;;13.00;1.95;;;17.30;99.90;;;;;;5023727;28;20060;-60
2022/09/01 05:33:20;;;;;;;8.93;2.25;;;17.30;99.90;;;;;;5039548;28;20049;-59
2022/09/01 05:35:54;;;;;;;12.13;2.42;;;17.40;99.90;;;;;;5039840;28;20026;-59
2022/09/01 05:38:21;;;;;;;7.78;2.30;;;17.40;99.90;;;;;;5039979;28;20041;-59
2022/09/01 05:40:56;;;;;;;6.72;1.98;;;17.40;99.90;;;;;;5022940;28;20022;-59
2022/09/01 05:43:24;;;;;;;24.02;4.07;;;17.50;99.90;;;;;;5007011;28;20092;-59
2022/09/01 05:45:53;;;;;;;11.63;1.83;;;17.40;99.90;;;;;;5039240;28;20026;-60
2022/09/01 05:48:35;;;;;;;12.98;1.80;;;17.50;99.90;;;;;;5024222;28;20043;-59
2022/09/01 05:51:05;;;;;;;7.78;2.35;;;17.50;99.90;;;;;;5005351;28;20030;-60
2022/09/01 05:53:55;;;;;;;14.93;2.92;;;17.50;99.90;;;;;;4664821;28;10001000;-59
2022/09/01 05:56:22;;;;;;;12.13;1.77;;;17.50;99.90;;;;;;5036917;28;20049;-59
2022/09/01 05:58:50;;;;;;;12.13;3.08;;;17.50;99.90;;;;;;5036363;28;20042;-59
2022/09/01 06:01:39;;;;;;;6.68;2.00;;;17.50;99.90;;;;;;5036351;28;20025;-59
2022/09/01 06:04:08;;;;;;;13.00;1.98;;;17.50;99.90;;;;;;5036271;28;20038;-59
2022/09/01 06:06:48;;;;;;;11.05;2.28;;;17.60;99.90;;;;;;5036369;28;20061;-59
2022/09/01 06:09:37;;;;;;;9.60;2.30;;;17.60;99.90;;;;;;5036626;28;20058;-59
2022/09/01 06:12:05;;;;;;;9.75;1.67;;;17.60;99.90;;;;;;5019107;28;20040;-59
2022/09/01 06:14:32;;;;;;;7.97;2.03;;;17.60;99.90;;;;;;5003710;28;20081;-59
2022/09/01 06:17:01;;;;;;;11.23;2.35;;;17.70;99.90;;;;;;5019074;28;20033;-59
2022/09/01 06:19:29;;;;;;;5.88;2.08;;;17.70;99.90;;;;;;5036731;28;20034;-61
2022/09/01 06:22:03;;;;;;;6.93;2.55;;;17.70;99.90;;;;;;5036431;28;20262;-59
2022/09/01 06:24:30;;;;;;;13.35;2.90;;;17.70;99.90;;;;;;5036502;28;20049;-59
2022/09/01 06:26:58;;;;;;;12.77;2.20;;;17.70;99.90;;;;;;5018779;28;20068;-59
2022/09/01 06:29:25;;;;;;;8.23;2.00;;;17.80;99.90;;;;;;5019326;28;20197;-59
2022/09/01 06:31:52;;;;;;;11.57;2.25;;;17.80;99.90;;;;;;5036668;28;20030;-59
2022/09/01 06:34:18;;;;;;;10.98;2.60;;;17.80;99.90;;;;;;5026918;28;20033;-59
2022/09/01 06:36:47;;;;;;;10.88;1.80;;;17.80;99.90;;;;;;5019957;28;20065;-59
2022/09/01 06:39:20;;;;;;;11.00;2.28;;;17.90;99.90;;;;;;5038210;28;20030;-59
2022/09/01 06:41:51;;;;;;;8.00;1.95;;;17.90;99.90;;;;;;5021288;28;20097;-59
2022/09/01 06:44:21;;;;;;;14.27;2.55;;;18.00;99.90;;;;;;5038434;28;20038;-59
2022/09/01 06:46:49;;;;;;;8.25;2.20;;;17.90;99.90;;;;;;5018145;28;20101;-59
2022/09/01 06:49:16;;;;;;;12.43;2.33;;;18.00;99.90;;;;;;5038574;28;20026;-59
2022/09/01 06:51:48;;;;;;;15.23;2.13;;;18.00;99.90;;;;;;5005389;28;20026;-59
2022/09/01 06:54:16;;;;;;;12.32;2.72;;;18.10;99.90;;;;;;5037983;28;20044;-59
2022/09/01 06:56:47;;;;;;;12.20;2.13;;;18.10;99.90;;;;;;5037587;28;20081;-60
2022/09/01 06:59:18;;;;;;;13.43;2.10;;;18.20;99.90;;;;;;5037818;28;20037;-59
2022/09/01 07:01:47;;;;;;;10.48;1.70;;;18.20;99.90;;;;;;5020342;28;20042;-59
2022/09/01 07:04:20;;;;;;;14.85;2.50;;;18.20;99.90;;;;;;5036594;28;20068;-60
2022/09/01 07:06:51;;;;;;;8.80;2.28;;;18.30;99.90;;;;;;5034980;28;20038;-60
2022/09/01 07:09:28;;;;;;;12.57;2.50;;;18.30;99.90;;;;;;5036771;28;20034;-58
2022/09/01 07:12:18;;;;;;;15.52;2.35;;;18.30;99.90;;;;;;5037163;28;20061;-58
2022/09/01 07:14:54;;;;;;;12.30;1.95;;;18.30;99.90;;;;;;5036583;28;20053;-59
2022/09/01 07:17:47;;;;;;;12.07;1.85;;;18.30;99.90;;;;;;5037271;28;20037;-59
2022/09/01 07:20:15;;;;;;;5.10;1.75;;;18.40;99.90;;;;;;5020977;28;20034;-60
2022/09/01 07:22:50;;;;;;;6.65;2.05;;;18.40;99.90;;;;;;5006333;28;20123;-60
2022/09/01 07:25:39;;;;;;;10.70;1.65;;;18.40;99.90;;;;;;5033736;28;20034;-59
2022/09/01 07:28:28;;;;;;;15.57;2.60;;;18.40;99.90;;;;;;5035234;28;20073;-59
2022/09/01 07:31:04;;;;;;;9.13;2.15;;;18.50;99.90;;;;;;5031513;28;20102;-59
2022/09/01 07:33:51;;;;;;;11.88;2.20;;;18.60;99.90;;;;;;4998701;28;20141;-59
2022/09/01 07:36:20;;;;;;;9.88;1.75;;;18.60;99.90;;;;;;5036726;28;20102;-59
2022/09/01 07:38:55;;;;;;;9.57;2.55;;;18.70;99.90;;;;;;5036993;28;20040;-59
2022/09/01 07:41:42;;;;;;;14.13;2.33;;;18.70;99.90;;;;;;5027260;28;20030;-58
2022/09/01 07:44:29;;;;;;;8.93;2.03;;;18.80;99.90;;;;;;5001251;28;20064;-59
2022/09/01 07:46:56;;;;;;;7.97;1.73;;;18.90;99.90;;;;;;5037282;28;20104;-59
2022/09/01 07:49:43;;;;;;;11.45;2.10;;;18.90;99.90;;;;;;5009328;28;20032;-60
2022/09/01 07:52:30;;;;;;;7.28;1.90;;;18.90;99.90;;;;;;5022341;28;20096;-59
2022/09/01 07:54:57;;;;;;;11.07;2.72;;;19.00;99.90;;;;;;5036329;28;20040;-59
2022/09/01 07:57:24;;;;;;;8.07;2.03;;;19.00;99.90;;;;;;5019120;28;20059;-59
2022/09/01 07:59:54;;;;;;;14.77;3.08;;;19.10;99.90;;;;;;5036172;28;20332;-59
2022/09/01 08:02:21;;;;;;;13.43;1.80;;;19.20;99.90;;;;;;5035820;28;20072;-62
2022/09/01 08:04:48;;;;;;;16.80;2.65;;;19.20;99.90;;;;;;5016744;28;20116;-63
2022/09/01 08:07:15;;;;;;;15.75;3.00;;;19.30;99.90;;;;;;5001154;28;20041;-60
2022/09/01 08:09:42;;;;;;;9.57;2.45;;;19.40;99.90;;;;;;5016310;28;20030;-59
2022/09/01 08:12:10;;;;;;;11.45;2.47;;;19.50;99.90;;;;;;5012729;28;20097;-59
2022/09/01 08:14:37;;;;;;;11.45;2.60;;;19.60;99.90;;;;;;5015936;28;20033;-59
2022/09/01 08:17:05;;;;;;;15.52;2.65;;;19.60;99.90;;;;;;5015699;28;20034;-59
2022/09/01 08:19:52;;;;;;;13.15;2.10;;;19.60;99.90;;;;;;5018069;28;20086;-59
2022/09/01 08:22:22;;;;;;;17.65;3.90;;;19.60;99.90;;;;;;5014763;28;20022;-59
2022/09/01 08:24:50;;;;;;;13.00;2.03;;;19.60;99.90;;;;;;5032556;28;20056;-59
2022/09/01 08:27:17;;;;;;;9.57;1.92;;;19.60;99.90;;;;;;5015094;28;20044;-59
2022/09/01 08:29:44;;;;;;;14.15;2.65;;;19.60;99.90;;;;;;5031214;28;20086;-60
2022/09/01 08:32:11;;;;;;;8.68;1.95;;;19.60;99.90;;;;;;5032184;28;20046;-61
2022/09/01 08:34:39;;;;;;;14.05;3.17;;;19.60;99.90;;;;;;5011660;28;20061;-60
2022/09/01 08:37:06;;;;;;;8.45;2.35;;;19.60;99.90;;;;;;4999317;28;20081;-60
2022/09/01 08:39:33;;;;;;;10.25;2.67;;;19.60;99.90;;;;;;5028381;28;20069;-59
2022/09/01 08:42:20;;;;;;;12.57;2.42;;;19.60;99.90;;;;;;5027734;28;20045;-59
2022/09/01 08:45:05;;;;;;;8.75;2.42;;;19.60;99.90;;;;;;4993997;28;20029;-59
2022/09/01 08:47:32;;;;;;;13.75;2.92;;;19.70;99.90;;;;;;5013038;28;20065;-58
2022/09/01 08:50:19;;;;;;;11.30;2.33;;;19.70;99.90;;;;;;5014905;28;20057;-57
2022/09/01 08:52:50;;;;;;;8.25;1.80;;;19.70;99.90;;;;;;5028203;28;20053;-59
2022/09/01 08:55:28;;;;;;;11.20;1.80;;;19.80;99.90;;;;;;4987379;28;20120;-59
2022/09/01 08:57:56;;;;;;;7.10;2.00;;;19.80;99.90;;;;;;5012135;28;20042;-60
2022/09/01 09:00:28;;;;;;;16.00;3.28;;;19.80;99.90;;;;;;5006388;28;20050;-59
2022/09/01 09:03:05;;;;;;;16.10;2.03;;;19.80;99.90;;;;;;5007376;28;20315;-58
2022/09/01 09:05:54;;;;;;;14.10;2.30;;;19.90;99.90;;;;;;4676413;28;10000165;-59
2022/09/01 09:08:46;;;;;;;15.77;2.70;;;19.90;99.90;;;;;;5000089;28;20033;-59
2022/09/01 09:11:45;;;;;;;11.68;2.13;;;19.90;99.90;;;;;;5031416;28;20038;-59
2022/09/01 09:14:33;;;;;;;13.10;2.45;;;19.90;99.90;;;;;;5001713;28;20069;-59
2022/09/01 09:17:00;;;;;;;16.70;2.95;;;19.90;99.90;;;;;;5014196;28;20030;-59
2022/09/01 09:19:36;;;;;;;24.02;3.25;;;19.90;99.90;;;;;;5016173;28;20038;-59
2022/09/01 09:22:06;;;;;;;11.20;3.42;;;19.90;99.90;;;;;;5032356;28;20061;-59
2022/09/01 09:24:46;;;;;;;17.58;3.45;;;19.90;99.90;;;;;;4995630;28;20038;-59
2022/09/01 09:27:38;;;;;;;9.52;2.92;;;19.90;99.90;;;;;;5011068;28;20054;-59
2022/09/01 09:30:18;;;;;;;16.20;3.47;;;19.90;99.90;;;;;;5017411;28;20046;-58
2022/09/01 09:32:48;;;;;;;11.65;3.15;;;19.90;99.90;;;;;;5029848;28;20068;-59
2022/09/01 09:35:44;;;;;;;13.20;2.72;;;19.90;99.90;;;;;;5022089;28;20048;-59
2022/09/01 09:41:03;;;;;;;19.23;3.17;;;20.00;99.90;;;;;;5029169;28;20037;-59
2022/09/01 09:44:21;;;;;;;14.90;2.80;;;20.10;99.90;;;;;;4999731;28;20048;-58
2022/09/01 09:46:48;;;;;;;19.42;3.08;;;20.20;99.90;;;;;;4999471;28;20046;-58
2022/09/01 09:49:31;;;;;;;13.77;3.47;;;20.20;99.90;;;;;;5029875;28;20073;-58
2022/09/01 09:52:02;;;;;;;7.35;2.35;;;20.20;99.90;;;;;;4995449;28;20060;-59
2022/09/01 09:54:29;;;;;;;6.60;1.88;;;20.30;99.90;;;;;;5029507;28;20046;-59
2022/09/01 09:57:10;;;;;;;9.65;1.83;;;20.30;99.90;;;;;;5029486;28;20054;-59
2022/09/01 10:00:17;;;;;;;12.23;2.38;;;20.30;99.90;;;;;;5030954;28;20037;-59
2022/09/01 10:02:44;;;;;;;12.00;1.98;;;20.30;99.90;;;;;;5003013;28;20058;-59
2022/09/01 10:05:23;;;;;;;8.30;1.95;;;20.30;99.90;;;;;;4997088;28;20042;-59
2022/09/01 10:07:51;;;;;;;9.32;1.73;;;20.20;99.90;;;;;;5025798;28;20502;-60
2022/09/01 10:10:40;;;;;;;10.07;2.13;;;20.20;99.90;;;;;;5011667;28;20088;-59
2022/09/01 10:13:21;;;;;;;24.45;3.28;;;20.20;99.90;;;;;;5011617;28;20085;-60
2022/09/01 10:15:53;;;;;;;9.23;2.25;;;20.20;99.90;;;;;;4997232;28;20116;-60
2022/09/01 10:18:23;;;;;;;12.07;3.13;;;20.20;99.90;;;;;;5000030;28;20050;-59
2022/09/01 10:21:07;;;;;;;14.20;3.22;;;20.20;99.90;;;;;;5015706;28;20046;-60
2022/09/01 10:23:36;;;;;;;15.68;3.10;;;20.10;99.90;;;;;;5000998;28;20050;-60
2022/09/01 10:26:23;;;;;;;9.77;2.70;;;20.10;99.90;;;;;;5016160;28;20056;-59
2022/09/01 10:29:09;;;;;;;9.57;2.80;;;20.10;99.90;;;;;;5016920;28;20044;-59
2022/09/01 10:31:38;;;;;;;14.35;3.40;;;20.00;99.90;;;;;;5031821;28;20069;-60
2022/09/01 10:34:05;;;;;;;10.27;2.33;;;20.00;99.90;;;;;;4999006;28;20046;-59
2022/09/01 10:36:34;;;;;;;10.13;2.30;;;20.00;99.90;;;;;;5033601;28;20057;-59
2022/09/01 10:39:02;;;;;;;17.60;2.95;;;20.00;99.90;;;;;;5015903;28;20592;-59
2022/09/01 10:42:06;;;;;;;9.20;2.28;;;20.10;99.90;;;;;;5033166;28;20078;-59
2022/09/01 10:44:34;;;;;;;8.75;2.15;;;20.00;99.90;;;;;;5033263;28;20041;-59
2022/09/01 10:47:09;;;;;;;9.70;2.45;;;20.00;99.90;;;;;;5033610;28;20081;-60
2022/09/01 10:49:43;;;;;;;5.07;1.52;;;20.10;99.90;;;;;;5017869;28;20041;-59
2022/09/01 10:52:39;;;;;;;8.25;1.88;;;20.00;99.90;;;;;;5033340;28;20117;-59
2022/09/01 10:55:27;;;;;;;5.40;1.63;;;20.10;99.90;;;;;;5017866;28;20046;-59
2022/09/01 10:58:15;;;;;;;15.93;2.15;;;20.20;99.90;;;;;;5031386;28;20038;-60
2022/09/01 11:01:02;;;;;;;9.27;3.53;;;20.20;99.90;;;;;;5024512;28;20041;-59
2022/09/01 11:03:53;;;;;;;7.15;1.63;;;20.20;99.90;;;;;;5016229;28;20042;-59
2022/09/01 11:06:40;;;;;;;9.95;2.38;;;20.20;99.90;;;;;;5026277;28;20018;-59
2022/09/01 11:09:26;;;;;;;7.70;1.70;;;20.30;99.90;;;;;;5033238;28;20050;-61
2022/09/01 11:12:06;;;;;;;8.45;1.90;;;20.30;99.90;;;;;;5032584;28;20125;-60
2022/09/01 11:14:34;;;;;;;11.00;2.40;;;20.40;99.90;;;;;;5032225;28;20061;-59
2022/09/01 11:17:30;;;;;;;10.30;2.35;;;20.40;99.90;;;;;;4997634;28;20033;-59
2022/09/01 11:20:08;;;;;;;8.10;1.80;;;20.40;99.90;;;;;;5032155;28;20088;-60
2022/09/01 11:22:43;;;;;;;14.95;2.38;;;20.40;99.90;;;;;;5031542;28;20060;-60
2022/09/01 11:25:32;;;;;;;8.23;1.98;;;20.40;99.90;;;;;;4999793;28;20046;-59
2022/09/01 11:28:15;;;;;;;12.98;3.65;;;20.40;99.90;;;;;;5014654;28;20050;-61
2022/09/01 11:31:05;;;;;;;14.65;2.55;;;20.50;99.90;;;;;;5031309;28;20056;-61
2022/09/01 11:33:54;;;;;;;14.95;3.10;;;20.50;99.90;;;;;;5030963;28;20072;-60
2022/09/01 11:36:46;;;;;;;14.07;2.83;;;20.50;99.90;;;;;;5029888;28;20049;-60
2022/09/01 11:39:16;;;;;;;8.40;1.83;;;20.50;99.90;;;;;;5028182;28;20106;-60
2022/09/01 11:41:57;;;;;;;12.60;2.95;;;20.50;99.90;;;;;;5030788;28;20084;-59
2022/09/01 11:44:50;;;;;;;17.88;2.92;;;20.50;99.90;;;;;;5028971;28;20046;-60
2022/09/01 11:47:29;;;;;;;15.93;3.15;;;20.60;99.90;;;;;;5019443;28;20034;-61
2022/09/01 11:50:20;;;;;;;11.50;2.45;;;20.60;99.90;;;;;;4988859;28;20033;-60
2022/09/01 11:52:57;;;;;;;16.92;2.58;;;20.70;99.90;;;;;;5011098;28;20041;-60
2022/09/01 11:55:38;;;;;;;13.82;2.25;;;20.80;99.90;;;;;;5015133;28;20114;-61
2022/09/01 11:58:08;;;;;;;19.88;2.15;;;20.80;99.90;;;;;;5029733;28;20053;-60
2022/09/01 12:00:38;;;;;;;18.63;4.38;;;20.90;99.90;;;;;;4997605;28;20041;-60
2022/09/01 12:03:18;;;;;;;9.68;2.30;;;21.00;99.90;;;;;;5013242;28;20061;-61
2022/09/01 12:05:46;;;;;;;6.68;1.75;;;21.20;99.90;;;;;;5014786;28;20110;-59
2022/09/01 12:08:20;;;;;;;12.15;2.50;;;21.40;99.90;;;;;;4998284;28;20034;-60
2022/09/01 12:10:50;;;;;;;20.65;2.60;;;21.50;99.90;;;;;;4997716;28;20117;-59
2022/09/01 12:13:22;;;;;;;4.35;1.80;;;21.70;99.90;;;;;;5013557;28;20073;-60
2022/09/01 12:15:54;;;;;;;7.38;1.60;;;21.90;99.90;;;;;;5014963;28;20049;-60
2022/09/01 12:18:49;;;;;;;9.18;2.25;;;22.20;99.90;;;;;;5005296;28;20188;-60
2022/09/01 12:21:31;;;;;;;5.38;2.22;;;22.50;99.90;;;;;;5012448;28;20054;-59
2022/09/01 12:24:11;;;;;;;4.28;1.30;;;22.70;99.90;;;;;;4998089;28;20041;-59
2022/09/01 12:26:37;;;;;;;7.28;1.50;;;22.90;99.90;;;;;;5012958;28;20046;-60
2022/09/01 12:29:05;;;;;;;6.90;2.05;;;23.00;99.90;;;;;;5012242;28;20066;-59
2022/09/01 12:31:33;;;;;;;9.65;2.50;;;23.10;99.90;;;;;;4995952;28;20029;-59
2022/09/01 12:34:03;;;;;;;10.77;2.05;;;23.20;99.90;;;;;;5012747;28;20050;-59
2022/09/01 12:36:34;;;;;;;8.93;1.75;;;23.30;99.90;;;;;;5028992;28;20049;-60
2022/09/01 12:39:23;;;;;;;13.75;2.15;;;23.30;99.40;;;;;;5018011;28;20081;-59
2022/09/01 12:42:05;;;;;;;11.80;2.30;;;23.40;96.10;;;;;;4980556;28;20053;-59
2022/09/01 12:44:38;;;;;;;8.07;1.77;;;23.50;95.40;;;;;;5028525;28;20049;-59
2022/09/01 12:47:12;;;;;;;3.65;1.67;;;23.50;96.90;;;;;;5010166;28;20060;-59
2022/09/01 12:49:44;;;;;;;8.38;1.83;;;23.60;96.50;;;;;;5009468;28;20049;-59
2022/09/01 12:52:18;;;;;;;6.78;1.88;;;23.70;95.90;;;;;;5010418;28;20033;-60
2022/09/01 12:54:49;;;;;;;11.57;1.65;;;23.80;96.90;;;;;;5009608;28;20068;-59
2022/09/01 12:57:27;;;;;;;11.77;2.45;;;23.90;96.00;;;;;;4993864;28;20068;-59
2022/09/01 13:00:10;;;;;;;7.88;2.03;;;23.90;93.90;;;;;;4978028;28;20064;-59
2022/09/01 13:02:38;;;;;;;9.35;1.50;;;23.90;92.80;;;;;;5028249;28;20041;-60
2022/09/01 13:05:35;;;;;;;10.35;2.20;;;23.90;94.40;;;;;;5028189;28;20046;-59
2022/09/01 13:08:09;;;;;;;13.40;2.10;;;23.80;92.50;;;;;;5028124;28;20100;-59
2022/09/01 13:10:42;;;;;;;10.23;2.30;;;23.70;95.10;;;;;;5010601;28;20050;-60
2022/09/01 13:13:09;;;;;;;15.07;2.20;;;23.80;95.20;;;;;;5011135;28;20045;-59
2022/09/01 13:15:37;;;;;;;10.68;1.95;;;23.90;94.60;;;;;;5009598;28;20050;-59
2022/09/01 13:18:04;;;;;;;12.50;3.28;;;23.90;94.50;;;;;;5008547;28;20081;-59